Rafik Belkebla

Chefscout - CR Belouizdad
11 Mär 2027
Donnerstag
Verarbeitung

Persönlichkeit

Anpassungsfähigkeit (4) Ehrgeiz (7) Kontroverse (13) Loyalität (13) Druck (6) Professionalität (10) Fairness (3) Temperament (17)

Profil

Trainerstil Demokratisch
Lizenz Kontinentale Pro
Entschlossenheit 4
Menschenführung 10
Motivation 10
Disziplin 4
Arbeitszufriedenheit
94%
Ermüdung
0%
Rolle Chefscout
Gehalt 49.4K p/W
Vertrag 14.03.2030

Leistung

Verhalten Gut
Trainingseffektivität
33%
Spielerentwicklung
50%
Verletzungsprävention
40%
Taktische Umsetzung
45%

Letzte Ereignisse

Nahm an einer Scouting-Besprechung teil jetzt
Nahm an einer Scouting-Besprechung teil jetzt
Nahm an einer Scouting-Besprechung teil jetzt
Nahm an einer Scouting-Besprechung teil jetzt
Nahm an einer Scouting-Besprechung teil jetzt
Nahm an einer Scouting-Besprechung teil jetzt
Nahm an einer Scouting-Besprechung teil jetzt
Nahm an einer Scouting-Besprechung teil jetzt

Aktuell beobachtet

134
Spieler Verein Status Fähigkeit Vertrauen Beobachtet Zuletzt beobachtet Letzte Stimme
Aboubacar Doumbia Al-Orobah Aktiv 97 / 107 40% 2 10.03.2027 -
Óscar Al-Diriyah Aktiv 141 / 131 40% 1 10.03.2027 -
Lewis Morgan SuperSport United Aktiv 118 / 126 40% 1 09.03.2027 -
Ollie Watkins Al-Hilal Aktiv 145 / 150 40% 1 09.03.2027 -
Rúben Neves Al-Hilal Aktiv 143 / 147 40% 1 08.03.2027 -
Abdennour Iheb Belhocini JS Kabylie Aktiv 106 / 117 40% 1 08.03.2027 -
Elton Acolatse Al-Hazem Aktiv 122 / 116 40% 2 07.03.2027 -
Crysencio Summerville Al-Hilal Aktiv 148 / 142 40% 4 07.03.2027 -
Harrison Ofori Liberty Professionals Aktiv 104 / 90 40% 2 07.03.2027 -
Dean Erasmus Platinum Stars Aktiv 83 / 87 40% 1 07.03.2027 -
Hazzaa Al-Ghamdi Damac Aktiv 90 / 94 40% 1 06.03.2027 -
Yegor Golenkov Rostov Aktiv 111 / 124 40% 1 06.03.2027 -
Eduard Spertsyan Al-Ahli Aktiv 141 / 148 40% 2 04.03.2027 -
Brayan León Mamelodi Sundowns Aktiv 133 / 109 40% 4 04.03.2027 -
Kwame Opoku Asante Kotoko Aktiv 109 / 97 40% 3 04.03.2027 -
Steven Bergwijn Al-Ittihad Aktiv 138 / 141 40% 1 04.03.2027 -
Václav Sejk Sigma Olomouc Aktiv 116 / 113 40% 1 03.03.2027 -
Wesley Pomba Veres Aktiv 107 / 111 40% 3 02.03.2027 -
Dramane Kamagaté USM Alger Aktiv 100 / 114 40% 1 02.03.2027 Mehr Infos nötig
Robert Mizo Ashanti Gold Aktiv 122 / 110 40% 3 28.02.2027 -
Yaw Mensah Hasaacas Aktiv 87 / 81 40% 1 28.02.2027 -
Bandar Yaqoob ES Setif Aktiv 117 / 135 40% 2 27.02.2027 -
Midana Cassamá Portimonense Aktiv 93 / 112 40% 1 27.02.2027 -
Wandile Duba Maritzburg United Aktiv 102 / 109 40% 3 24.02.2027 -
Brayan Gil Baltika Aktiv 121 / 114 40% 3 22.02.2027 -
Ammar Ramadan DAC Dunajska Streda Aktiv 117 / 114 40% 2 22.02.2027 -
Jonathan Okoronkwo Torpedo Moscow Aktiv 121 / 108 40% 2 21.02.2027 -
Younes El Bahraoui Al-Taawoun Aktiv 102 / 110 40% 1 21.02.2027 -
Tyreece Simpson Maritzburg United Aktiv 69 / 92 40% 1 18.02.2027 -
Morad Khodari Al-Wehda Aktiv 91 / 100 40% 1 17.02.2027 -
Juan Perea Septemvri Aktiv 94 / 106 40% 1 16.02.2027 -
Abdullah Al-Hamddan Al-Nassr Aktiv 112 / 106 40% 3 15.02.2027 -
José Martínes CSKA 1948 Aktiv 122 / 102 40% 2 15.02.2027 -
Enzo Cabrera AE Kition Aktiv 132 / 120 40% 1 13.02.2027 -
Isaac Essien WAFA Aktiv 103 / 98 40% 1 12.02.2027 -
Keagan Mokoena Free State Stars Aktiv 90 / 97 40% 1 11.02.2027 -
Hamdi Labidi Olympique Akbou Aktiv 112 / 100 40% 1 07.02.2027 -
Tenton Yenne Baltika Aktiv 103 / 108 40% 1 07.02.2027 -
Ben Ahmed Kohili Paradou Aktiv 106 / 106 40% 1 06.02.2027 Mehr Infos nötig
Slobodan Tedić Akron Aktiv 108 / 99 40% 1 03.02.2027 -
Kenan Dervišagić Floriana Aktiv 95 / 101 40% 1 03.02.2027 -
Ruslan Apekov Torpedo Moscow Aktiv 102 / 109 40% 1 02.02.2027 -
Nicolás Andereggen Ethnikos Achnas Aktiv 129 / 120 40% 1 02.02.2027 -
Etiosa Ighodaro Kaizer Chiefs Aktiv 128 / 116 40% 2 01.02.2027 -
Jacques Siwe Rubin Aktiv 128 / 119 40% 1 01.02.2027 -
Samú Al-Nassr Aktiv 155 / 152 40% 3 25.01.2027 -
Bassam Al-Hurayji Al-Taawoun Aktiv 116 / 112 40% 1 25.01.2027 -
Williams Mothiba Black Aces Aktiv 75 / 87 40% 3 11.01.2027 -
Ibrahim Maza Bayer Leverkusen Aktiv 149 / 156 40% 1 11.01.2027 -
Valentin Atangana Al-Ahli Aktiv 138 / 129 40% 1 11.01.2027 -
Sergio Barajas Santos Laguna Aktiv 58 / 84 40% 1 11.01.2027 -
Aljoša Matko Ujpest Verloren 117 / 117 66% 1 01.01.2027 Befürworten
Yacine Adli Al-Shabab Aktiv 133 / 135 40% 3 31.12.2026 -
Ângelo Al-Nassr Aktiv 124 / 142 40% 1 31.12.2026 Mehr Infos nötig
Yasser Al-Sultan Al-Mojzel Aktiv 75 / 72 40% 3 29.12.2026 -
Mohau Nkota Al-Ettifaq Aktiv 120 / 117 40% 3 29.12.2026 Beobachten
Valentín Motta Independiente Aktiv 94 / 99 40% 1 29.12.2026 Mehr Infos nötig
Musab Al-Juwayr Al-Qadisiyah Aktiv 130 / 135 40% 2 28.12.2026 -
Tshepang Moremi Orlando Pirates Aktiv 110 / 119 40% 2 27.12.2026 -
Mohammed Abu Al-Shamat Al-Qadisiyah Aktiv 113 / 130 40% 2 27.12.2026 -
Mohamed Abdelfattah Zamalek Aktiv 71 / 82 40% 4 25.12.2026 -
Christopher Bonsu Baah Al-Qadisiyah Aktiv 124 / 130 40% 2 24.12.2026 -
Ronaldo Rostov Aktiv 136 / 120 40% 1 24.12.2026 -
Haitham Asiri Al-Qadisiyah Aktiv 104 / 112 40% 1 23.12.2026 -
Williams Manyama SuperSport United Aktiv 100 / 126 40% 1 23.12.2026 -
Radhi Al-Otaibi Al-Ettifaq Aktiv 105 / 104 40% 1 22.12.2026 -
Suleiman Camara Slovan Bratislava Aktiv 103 / 113 40% 1 22.12.2026 -
Richard Medvedev Khazar Aktiv 91 / 108 40% 2 21.12.2026 Mehr Infos nötig
Muhannad Al-Shanqiti Al-Ittihad Aktiv 112 / 119 40% 1 20.12.2026 -
Aiman Yahya Al-Nassr Aktiv 113 / 116 40% 2 17.12.2026 -
Reda Khadra Qarabag Aktiv 112 / 123 40% 2 17.12.2026 -
Saleh Abu Al-Shamat Al-Ahli Aktiv 126 / 112 40% 2 16.12.2026 -
Mduduzi Shabalala Kaizer Chiefs Aktiv 115 / 119 40% 1 15.12.2026 -
Albert Amoah Hajer Aktiv 90 / 100 40% 1 15.12.2026 -
Evidence Makgopa Orlando Pirates Aktiv 109 / 120 40% 1 15.12.2026 -
Ali Majrashi Al-Ahli Aktiv 132 / 120 40% 3 13.12.2026 -
Matija Gluščević Al-Ettifaq Aktiv 105 / 115 40% 2 13.12.2026 -
Mohammad Alsalkhadi Damac Aktiv 119 / 105 40% 2 12.12.2026 -
Zaydou Youssouf Al-Fateh Aktiv 143 / 127 40% 1 12.12.2026 -
Marley Aké Zulte Waregem Aktiv 113 / 125 40% 1 12.12.2026 -
Everton Bala Levski Aktiv 130 / 120 40% 1 12.12.2026 -
Juan Manuel Centurión Independiente Aktiv 98 / 112 40% 1 11.12.2026 -
Hazem Gamal Al Ahly Aktiv 77 / 88 40% 1 10.12.2026 Mehr Infos nötig
Guilherme Pires Sporting CP Aktiv 71 / 98 40% 1 10.12.2026 -
Agustín Chávez Unión de Santa Fe Aktiv 95 / 96 40% 1 09.12.2026 Mehr Infos nötig
Roger Fernandes Al-Ittihad Aktiv 147 / 134 40% 2 07.12.2026 Mehr Infos nötig
Nabil Alioui Al-Nassr Aktiv 113 / 114 40% 2 06.12.2026 -
Ahmed Waheb Zlate Moravce Aktiv 69 / 79 40% 1 04.12.2026 -
Parfait Guiagon Al-Taawoun Aktiv 115 / 119 40% 2 03.12.2026 -
Nathan Ordaz Metalist Aktiv 108 / 111 40% 1 01.12.2026 -
Dhari Al-Anazi Al-Shabab Aktiv 114 / 107 40% 2 29.11.2026 -
Matheus Gonçalves Al-Ahli Aktiv 113 / 129 40% 1 29.11.2026 -
Mandla Erasmus SuperSport United Aktiv 119 / 130 40% 2 26.11.2026 -
Siaka Sidibé Al Wasl Aktiv 122 / 121 40% 1 26.11.2026 -
Lee Bonis Chesterfield Aktiv 83 / 95 40% 1 24.11.2026 -
Yaroslav Gladyshev Dinamo Moscow Aktiv 103 / 119 40% 1 24.11.2026 -
Brahian Palacios Al Wasl Aktiv 116 / 116 40% 1 22.11.2026 -
Turki Al-Ammar Al-Qadisiyah Aktiv 131 / 112 40% 1 21.11.2026 -
Sultan Mabkhout Al Ahli Aktiv 108 / 112 40% 1 20.11.2026 -
Jadsom Al Wahda Aktiv 136 / 135 40% 1 18.11.2026 -
Serginho Al Wasl Aktiv 124 / 132 40% 1 18.11.2026 -
Vinicius Mello Al Jazira Aktiv 99 / 116 40% 1 18.11.2026 -
Indrit Tuci Olimpija Ljubljana Aktiv 110 / 108 40% 1 17.11.2026 -
José Paradela Cruz Azul Aktiv 124 / 132 40% 3 15.11.2026 -
Mehdi Ghayedi Al Nasr Aktiv 116 / 132 40% 1 15.11.2026 -
Ruben van Bommel Ferencvaros Aktiv 144 / 131 40% 1 15.11.2026 -
Facundo Kruspzky Al Wahda Aktiv 113 / 125 40% 1 13.11.2026 -
Ziyad Al-Johani Al-Ahli Aktiv 105 / 122 40% 1 13.11.2026 -
Radek Šiler Podbrezova Aktiv 128 / 123 40% 1 09.11.2026 -
Mojmír Chytil NK Maribor Aktiv 145 / 130 40% 1 09.11.2026 -
Petar Stanić Ludogorets Aktiv 138 / 129 40% 2 07.11.2026 -
Saad Al-Nasser Al-Nassr Aktiv 107 / 107 40% 1 06.11.2026 -
Ahmed Al-Nakhli Al-Hazem Aktiv 99 / 116 40% 1 06.11.2026 -
Marouan Azarkan Al Nasr Aktiv 109 / 115 40% 1 03.11.2026 -
Axell Amaral Al Ain Aktiv 68 / 83 40% 2 11.10.2026 -
Youssef Beshir ENPPI Aktiv 77 / 71 40% 2 11.10.2026 -
David Cordova Atletico Venezuela Aktiv 72 / 107 40% 1 10.10.2026 -
Uriel Ramos Defensa y Justicia Aktiv 88 / 98 40% 1 08.10.2026 -
Omar Kamel Al Ahly Aktiv 75 / 87 40% 1 07.10.2026 -
Alberto Martínez Guarani Aktiv 72 / 99 40% 1 02.10.2026 -
Maxim Shichanin Zenit Aktiv 103 / 94 40% 1 30.09.2026 -
Owen Foster Hull City Aktiv 93 / 81 40% 1 27.09.2026 -
Ahmed Menshawi Ittihad Aktiv 68 / 78 40% 1 27.09.2026 -
Federico Bonilla Nacional Aktiv 93 / 90 40% 1 25.09.2026 -
Prince Guèye Al Wahda Aktiv 79 / 101 40% 1 24.09.2026 -
Renato Ardissono San Lorenzo Aktiv 70 / 88 40% 1 24.09.2026 -
Joaquín Sevegnani Colegiales Aktiv 100 / 97 40% 1 20.09.2026 -
Ramiro Buratti River Plate Aktiv 78 / 92 40% 1 20.09.2026 -
Omar Abdelaziz Zamalek Aktiv 78 / 89 40% 1 19.09.2026 -
Luca Fernández Barracas Central Aktiv 89 / 84 40% 1 14.09.2026 -
Falah Al-Shamri Al-Batin Aktiv 76 / 70 40% 2 12.09.2026 -
Fernando Bravo Independiente Rivadavia Aktiv 80 / 90 40% 1 10.09.2026 -
Matías Molina Independiente Aktiv 98 / 102 40% 1 08.09.2026 -
Ahmed Abdelkader Paradou Aktiv 90 / 85 51% 1 17.08.2026 -